DRZD weather

Dirkou Airport
Agadez Region, Niger

Public forecast

Using degrees Celsius for public forecast. Weather courtesy of forecast.io.

METAR (pilot weather report)

Report is more than 6 hours old.

Closest report is Faya Largeau Airport, 361.1 nm (668.7 km) E. Retrieved 2019/02/22 15:00 UTC (20 hours ago):

FTTY 221500Z 04006KT CAVOK 32/M06 Q1011

TAF (pilot weather forecast)

Closest forecast is Mano Dayak International Airport, 302.9 nm (561.0 km) WSW. Retrieved 2019/02/23 06:21 UTC (5 hours ago):

TAF DRZA 230500Z 2306/2406 040012KT 8000 NSC